sensor_id;sensor_type;location;lat;lon;timestamp;P1;durP1;ratioP1;P2;durP2;ratioP2
33553;SDS011;19885;42.208;24.952;2023-04-01T00:00:32;11.50;;;6.17;;
33553;SDS011;19885;42.208;24.952;2023-04-01T00:02:57;9.90;;;5.80;;
33553;SDS011;19885;42.208;24.952;2023-04-01T00:05:23;11.80;;;5.67;;
33553;SDS011;19885;42.208;24.952;2023-04-01T00:07:49;9.03;;;5.00;;
33553;SDS011;19885;42.208;24.952;2023-04-01T00:10:16;9.27;;;6.17;;
33553;SDS011;19885;42.208;24.952;2023-04-01T00:12:42;7.83;;;4.53;;
33553;SDS011;19885;42.208;24.952;2023-04-01T00:15:08;11.83;;;5.63;;
33553;SDS011;19885;42.208;24.952;2023-04-01T00:17:36;8.70;;;5.33;;
33553;SDS011;19885;42.208;24.952;2023-04-01T00:20:02;8.77;;;4.97;;
33553;SDS011;19885;42.208;24.952;2023-04-01T00:22:29;9.50;;;5.70;;
33553;SDS011;19885;42.208;24.952;2023-04-01T00:24:54;8.97;;;4.90;;
33553;SDS011;19885;42.208;24.952;2023-04-01T00:27:19;8.00;;;4.60;;
33553;SDS011;19885;42.208;24.952;2023-04-01T00:29:45;7.07;;;4.87;;
33553;SDS011;19885;42.208;24.952;2023-04-01T00:32:12;6.17;;;4.70;;
33553;SDS011;19885;42.208;24.952;2023-04-01T00:34:39;7.70;;;4.47;;
33553;SDS011;19885;42.208;24.952;2023-04-01T00:37:05;10.47;;;5.70;;
33553;SDS011;19885;42.208;24.952;2023-04-01T00:39:31;11.47;;;4.90;;
33553;SDS011;19885;42.208;24.952;2023-04-01T00:41:58;7.00;;;5.17;;
33553;SDS011;19885;42.208;24.952;2023-04-01T00:44:26;8.37;;;4.90;;
33553;SDS011;19885;42.208;24.952;2023-04-01T00:46:55;11.83;;;5.30;;
33553;SDS011;19885;42.208;24.952;2023-04-01T00:49:22;10.40;;;5.87;;
33553;SDS011;19885;42.208;24.952;2023-04-01T00:51:53;7.87;;;5.17;;
33553;SDS011;19885;42.208;24.952;2023-04-01T00:54:21;11.30;;;4.90;;
33553;SDS011;19885;42.208;24.952;2023-04-01T00:56:54;7.57;;;5.13;;
33553;SDS011;19885;42.208;24.952;2023-04-01T00:59:37;8.83;;;5.33;;
33553;SDS011;19885;42.208;24.952;2023-04-01T01:02:08;14.67;;;5.23;;
33553;SDS011;19885;42.208;24.952;2023-04-01T01:04:36;7.23;;;5.37;;
33553;SDS011;19885;42.208;24.952;2023-04-01T01:09:38;11.17;;;4.73;;
33553;SDS011;19885;42.208;24.952;2023-04-01T01:12:19;13.23;;;5.07;;
33553;SDS011;19885;42.208;24.952;2023-04-01T01:15:07;9.33;;;4.43;;
33553;SDS011;19885;42.208;24.952;2023-04-01T01:37:21;8.43;;;5.13;;
33553;SDS011;19885;42.208;24.952;2023-04-01T01:39:55;7.13;;;4.60;;
33553;SDS011;19885;42.208;24.952;2023-04-01T01:42:26;18.23;;;5.77;;
33553;SDS011;19885;42.208;24.952;2023-04-01T01:44:54;9.77;;;5.73;;
33553;SDS011;19885;42.208;24.952;2023-04-01T01:47:24;10.97;;;5.03;;
33553;SDS011;19885;42.208;24.952;2023-04-01T01:49:51;8.93;;;5.00;;
33553;SDS011;19885;42.208;24.952;2023-04-01T01:52:18;9.90;;;5.03;;
33553;SDS011;19885;42.208;24.952;2023-04-01T01:54:51;15.57;;;5.70;;
33553;SDS011;19885;42.208;24.952;2023-04-01T01:57:19;9.30;;;5.13;;
33553;SDS011;19885;42.208;24.952;2023-04-01T01:59:49;8.93;;;5.43;;
33553;SDS011;19885;42.208;24.952;2023-04-01T02:02:18;10.10;;;5.60;;
33553;SDS011;19885;42.208;24.952;2023-04-01T02:04:44;8.80;;;5.63;;
33553;SDS011;19885;42.208;24.952;2023-04-01T02:07:15;9.20;;;4.90;;
33553;SDS011;19885;42.208;24.952;2023-04-01T02:09:47;8.00;;;5.67;;
33553;SDS011;19885;42.208;24.952;2023-04-01T02:12:13;14.30;;;5.30;;
33553;SDS011;19885;42.208;24.952;2023-04-01T02:17:26;8.60;;;6.03;;
33553;SDS011;19885;42.208;24.952;2023-04-01T02:22:40;9.67;;;5.70;;
33553;SDS011;19885;42.208;24.952;2023-04-01T02:25:11;11.23;;;5.40;;
33553;SDS011;19885;42.208;24.952;2023-04-01T02:27:40;17.80;;;6.07;;
33553;SDS011;19885;42.208;24.952;2023-04-01T02:30:08;10.50;;;5.73;;
33553;SDS011;19885;42.208;24.952;2023-04-01T02:32:35;12.10;;;5.73;;
33553;SDS011;19885;42.208;24.952;2023-04-01T02:35:05;15.23;;;5.63;;
33553;SDS011;19885;42.208;24.952;2023-04-01T02:37:41;13.67;;;6.60;;
33553;SDS011;19885;42.208;24.952;2023-04-01T02:40:09;12.70;;;6.57;;
33553;SDS011;19885;42.208;24.952;2023-04-01T02:42:37;16.60;;;7.90;;
33553;SDS011;19885;42.208;24.952;2023-04-01T02:45:03;15.90;;;7.07;;
33553;SDS011;19885;42.208;24.952;2023-04-01T02:47:30;19.57;;;7.93;;
33553;SDS011;19885;42.208;24.952;2023-04-01T02:49:55;16.00;;;7.40;;
33553;SDS011;19885;42.208;24.952;2023-04-01T02:52:27;17.23;;;7.90;;
33553;SDS011;19885;42.208;24.952;2023-04-01T02:54:54;10.73;;;7.17;;
33553;SDS011;19885;42.208;24.952;2023-04-01T02:57:20;11.67;;;7.00;;
33553;SDS011;19885;42.208;24.952;2023-04-01T02:59:45;11.67;;;7.10;;
33553;SDS011;19885;42.208;24.952;2023-04-01T03:02:11;13.03;;;7.03;;
33553;SDS011;19885;42.208;24.952;2023-04-01T03:04:37;11.20;;;6.97;;
33553;SDS011;19885;42.208;24.952;2023-04-01T03:07:03;9.10;;;6.40;;
33553;SDS011;19885;42.208;24.952;2023-04-01T03:09:29;18.27;;;6.53;;
33553;SDS011;19885;42.208;24.952;2023-04-01T03:11:55;14.27;;;6.33;;
33553;SDS011;19885;42.208;24.952;2023-04-01T03:14:20;9.57;;;6.80;;
33553;SDS011;19885;42.208;24.952;2023-04-01T03:16:46;9.13;;;6.43;;
33553;SDS011;19885;42.208;24.952;2023-04-01T03:19:12;17.37;;;7.83;;
33553;SDS011;19885;42.208;24.952;2023-04-01T03:21:37;9.00;;;6.47;;
33553;SDS011;19885;42.208;24.952;2023-04-01T03:24:03;12.67;;;6.70;;
33553;SDS011;19885;42.208;24.952;2023-04-01T03:26:28;12.17;;;7.20;;
33553;SDS011;19885;42.208;24.952;2023-04-01T03:28:54;7.60;;;5.67;;
33553;SDS011;19885;42.208;24.952;2023-04-01T03:31:20;10.60;;;6.20;;
33553;SDS011;19885;42.208;24.952;2023-04-01T03:33:46;12.97;;;6.37;;
33553;SDS011;19885;42.208;24.952;2023-04-01T03:36:12;9.23;;;5.87;;
33553;SDS011;19885;42.208;24.952;2023-04-01T03:38:38;8.43;;;5.97;;
33553;SDS011;19885;42.208;24.952;2023-04-01T03:41:05;11.87;;;5.37;;
33553;SDS011;19885;42.208;24.952;2023-04-01T03:43:31;11.30;;;6.90;;
33553;SDS011;19885;42.208;24.952;2023-04-01T03:45:57;18.33;;;6.37;;
33553;SDS011;19885;42.208;24.952;2023-04-01T03:48:23;13.20;;;7.23;;
33553;SDS011;19885;42.208;24.952;2023-04-01T03:50:50;26.67;;;12.60;;
33553;SDS011;19885;42.208;24.952;2023-04-01T03:53:16;12.63;;;6.67;;
33553;SDS011;19885;42.208;24.952;2023-04-01T03:55:41;12.27;;;6.73;;
33553;SDS011;19885;42.208;24.952;2023-04-01T03:58:10;6.03;;;5.13;;
33553;SDS011;19885;42.208;24.952;2023-04-01T04:00:35;9.17;;;5.40;;
33553;SDS011;19885;42.208;24.952;2023-04-01T04:03:01;10.60;;;6.70;;
33553;SDS011;19885;42.208;24.952;2023-04-01T04:05:29;12.57;;;5.90;;
33553;SDS011;19885;42.208;24.952;2023-04-01T04:07:54;9.97;;;6.07;;
33553;SDS011;19885;42.208;24.952;2023-04-01T04:10:20;9.33;;;5.80;;
33553;SDS011;19885;42.208;24.952;2023-04-01T04:12:49;11.17;;;6.50;;
33553;SDS011;19885;42.208;24.952;2023-04-01T04:15:15;11.57;;;6.23;;
33553;SDS011;19885;42.208;24.952;2023-04-01T04:17:41;11.87;;;6.43;;
33553;SDS011;19885;42.208;24.952;2023-04-01T04:20:08;9.70;;;6.23;;
33553;SDS011;19885;42.208;24.952;2023-04-01T04:22:34;10.00;;;5.73;;
33553;SDS011;19885;42.208;24.952;2023-04-01T04:24:59;10.13;;;6.07;;
33553;SDS011;19885;42.208;24.952;2023-04-01T04:27:25;10.67;;;6.37;;
33553;SDS011;19885;42.208;24.952;2023-04-01T04:29:51;10.17;;;5.87;;
33553;SDS011;19885;42.208;24.952;2023-04-01T04:32:17;10.93;;;6.83;;
33553;SDS011;19885;42.208;24.952;2023-04-01T04:34:44;8.87;;;6.37;;
33553;SDS011;19885;42.208;24.952;2023-04-01T04:37:10;17.80;;;7.13;;
33553;SDS011;19885;42.208;24.952;2023-04-01T04:39:37;11.03;;;7.87;;
33553;SDS011;19885;42.208;24.952;2023-04-01T04:42:03;13.87;;;7.47;;
33553;SDS011;19885;42.208;24.952;2023-04-01T04:44:33;16.80;;;7.67;;
33553;SDS011;19885;42.208;24.952;2023-04-01T04:46:58;10.33;;;6.70;;
33553;SDS011;19885;42.208;24.952;2023-04-01T04:49:24;15.37;;;8.00;;
33553;SDS011;19885;42.208;24.952;2023-04-01T04:51:50;15.17;;;7.23;;
33553;SDS011;19885;42.208;24.952;2023-04-01T04:54:17;12.63;;;7.17;;
33553;SDS011;19885;42.208;24.952;2023-04-01T04:56:43;12.77;;;7.47;;
33553;SDS011;19885;42.208;24.952;2023-04-01T04:59:08;17.53;;;7.80;;
33553;SDS011;19885;42.208;24.952;2023-04-01T05:01:34;16.13;;;7.67;;
33553;SDS011;19885;42.208;24.952;2023-04-01T05:03:59;12.27;;;7.13;;
33553;SDS011;19885;42.208;24.952;2023-04-01T05:06:25;9.40;;;6.73;;
33553;SDS011;19885;42.208;24.952;2023-04-01T05:08:54;11.67;;;6.50;;
33553;SDS011;19885;42.208;24.952;2023-04-01T05:11:20;14.13;;;8.30;;
33553;SDS011;19885;42.208;24.952;2023-04-01T05:13:46;15.20;;;8.77;;
33553;SDS011;19885;42.208;24.952;2023-04-01T05:16:13;13.93;;;9.17;;
33553;SDS011;19885;42.208;24.952;2023-04-01T05:18:40;18.20;;;9.70;;
33553;SDS011;19885;42.208;24.952;2023-04-01T05:21:07;11.27;;;8.27;;
33553;SDS011;19885;42.208;24.952;2023-04-01T05:23:34;16.10;;;9.70;;
33553;SDS011;19885;42.208;24.952;2023-04-01T05:26:06;12.37;;;7.60;;
33553;SDS011;19885;42.208;24.952;2023-04-01T05:28:34;14.10;;;8.23;;
33553;SDS011;19885;42.208;24.952;2023-04-01T05:30:59;11.37;;;7.30;;
33553;SDS011;19885;42.208;24.952;2023-04-01T05:33:26;14.77;;;7.67;;
33553;SDS011;19885;42.208;24.952;2023-04-01T05:35:52;10.60;;;7.50;;
33553;SDS011;19885;42.208;24.952;2023-04-01T05:38:18;9.40;;;7.37;;
33553;SDS011;19885;42.208;24.952;2023-04-01T05:40:43;14.40;;;8.53;;
33553;SDS011;19885;42.208;24.952;2023-04-01T05:43:09;11.20;;;8.10;;
33553;SDS011;19885;42.208;24.952;2023-04-01T05:45:34;16.20;;;9.57;;
33553;SDS011;19885;42.208;24.952;2023-04-01T05:48:00;20.33;;;9.13;;
33553;SDS011;19885;42.208;24.952;2023-04-01T05:50:25;21.57;;;8.10;;
33553;SDS011;19885;42.208;24.952;2023-04-01T05:52:51;21.53;;;7.83;;
33553;SDS011;19885;42.208;24.952;2023-04-01T05:55:18;30.70;;;8.80;;
33553;SDS011;19885;42.208;24.952;2023-04-01T05:57:44;14.40;;;8.17;;
33553;SDS011;19885;42.208;24.952;2023-04-01T06:00:11;21.87;;;9.13;;
33553;SDS011;19885;42.208;24.952;2023-04-01T06:02:38;15.17;;;7.30;;
33553;SDS011;19885;42.208;24.952;2023-04-01T06:07:39;9.03;;;7.73;;
33553;SDS011;19885;42.208;24.952;2023-04-01T06:10:15;11.40;;;6.80;;
33553;SDS011;19885;42.208;24.952;2023-04-01T06:15:53;14.23;;;7.07;;
33553;SDS011;19885;42.208;24.952;2023-04-01T06:21:35;11.77;;;7.20;;
33553;SDS011;19885;42.208;24.952;2023-04-01T06:54:35;16.03;;;8.30;;
33553;SDS011;19885;42.208;24.952;2023-04-01T06:57:09;10.70;;;6.33;;
33553;SDS011;19885;42.208;24.952;2023-04-01T06:59:41;11.23;;;6.10;;
33553;SDS011;19885;42.208;24.952;2023-04-01T07:05:01;9.33;;;6.37;;
33553;SDS011;19885;42.208;24.952;2023-04-01T07:09:59;6.90;;;4.60;;
33553;SDS011;19885;42.208;24.952;2023-04-01T07:12:33;8.50;;;5.30;;
33553;SDS011;19885;42.208;24.952;2023-04-01T07:15:18;12.20;;;5.20;;
33553;SDS011;19885;42.208;24.952;2023-04-01T07:17:55;9.53;;;5.30;;
33553;SDS011;19885;42.208;24.952;2023-04-01T07:20:28;8.37;;;4.90;;
33553;SDS011;19885;42.208;24.952;2023-04-01T07:22:58;5.67;;;4.20;;
33553;SDS011;19885;42.208;24.952;2023-04-01T07:25:43;7.13;;;5.10;;
33553;SDS011;19885;42.208;24.952;2023-04-01T07:28:14;10.33;;;4.93;;
33553;SDS011;19885;42.208;24.952;2023-04-01T07:33:36;9.27;;;4.60;;
33553;SDS011;19885;42.208;24.952;2023-04-01T07:39:00;9.33;;;4.20;;
33553;SDS011;19885;42.208;24.952;2023-04-01T07:41:41;6.20;;;4.40;;
33553;SDS011;19885;42.208;24.952;2023-04-01T07:54:16;7.03;;;4.30;;
33553;SDS011;19885;42.208;24.952;2023-04-01T08:05:22;6.87;;;4.47;;
33553;SDS011;19885;42.208;24.952;2023-04-01T08:21:25;5.93;;;3.87;;
33553;SDS011;19885;42.208;24.952;2023-04-01T08:23:56;5.87;;;4.37;;
33553;SDS011;19885;42.208;24.952;2023-04-01T08:31:47;7.50;;;3.63;;
33553;SDS011;19885;42.208;24.952;2023-04-01T08:34:30;6.23;;;3.90;;
33553;SDS011;19885;42.208;24.952;2023-04-01T08:37:13;8.57;;;3.70;;
33553;SDS011;19885;42.208;24.952;2023-04-01T08:39:46;23.40;;;6.83;;
33553;SDS011;19885;42.208;24.952;2023-04-01T08:58:31;23.00;;;15.53;;
33553;SDS011;19885;42.208;24.952;2023-04-01T09:17:51;18.37;;;5.93;;
33553;SDS011;19885;42.208;24.952;2023-04-01T09:23:20;5.53;;;3.23;;
33553;SDS011;19885;42.208;24.952;2023-04-01T09:53:57;9.00;;;3.30;;
33553;SDS011;19885;42.208;24.952;2023-04-01T10:08:01;10.07;;;2.60;;
33553;SDS011;19885;42.208;24.952;2023-04-01T10:14:06;7.13;;;2.33;;
33553;SDS011;19885;42.208;24.952;2023-04-01T10:39:27;6.10;;;3.00;;
33553;SDS011;19885;42.208;24.952;2023-04-01T10:50:25;10.47;;;3.10;;
33553;SDS011;19885;42.208;24.952;2023-04-01T10:56:29;4.00;;;2.60;;
33553;SDS011;19885;42.208;24.952;2023-04-01T11:42:17;7.10;;;2.47;;
33553;SDS011;19885;42.208;24.952;2023-04-01T11:45:03;7.95;;;3.60;;
33553;SDS011;19885;42.208;24.952;2023-04-01T11:47:53;10.80;;;2.60;;
33553;SDS011;19885;42.208;24.952;2023-04-01T11:56:20;8.50;;;2.53;;
33553;SDS011;19885;42.208;24.952;2023-04-01T12:13:32;7.15;;;3.00;;
33553;SDS011;19885;42.208;24.952;2023-04-01T12:32:55;11.13;;;2.90;;
33553;SDS011;19885;42.208;24.952;2023-04-01T13:42:23;12.63;;;3.57;;
33553;SDS011;19885;42.208;24.952;2023-04-01T13:45:09;33.80;;;5.47;;
33553;SDS011;19885;42.208;24.952;2023-04-01T13:58:55;18.03;;;3.40;;
33553;SDS011;19885;42.208;24.952;2023-04-01T14:10:51;10.33;;;3.97;;
33553;SDS011;19885;42.208;24.952;2023-04-01T14:21:38;4.23;;;2.67;;
33553;SDS011;19885;42.208;24.952;2023-04-01T14:27:29;5.70;;;2.30;;
33553;SDS011;19885;42.208;24.952;2023-04-01T14:44:00;5.00;;;2.27;;
33553;SDS011;19885;42.208;24.952;2023-04-01T14:49:45;3.37;;;2.53;;
33553;SDS011;19885;42.208;24.952;2023-04-01T14:52:17;3.33;;;1.73;;
33553;SDS011;19885;42.208;24.952;2023-04-01T14:54:50;4.33;;;1.67;;
33553;SDS011;19885;42.208;24.952;2023-04-01T14:57:26;2.77;;;1.67;;
33553;SDS011;19885;42.208;24.952;2023-04-01T15:00:09;2.00;;;1.70;;
33553;SDS011;19885;42.208;24.952;2023-04-01T15:02:59;3.87;;;1.40;;
33553;SDS011;19885;42.208;24.952;2023-04-01T15:08:49;2.00;;;1.23;;
33553;SDS011;19885;42.208;24.952;2023-04-01T15:38:36;2.67;;;1.57;;
33553;SDS011;19885;42.208;24.952;2023-04-01T15:41:16;2.13;;;1.60;;
33553;SDS011;19885;42.208;24.952;2023-04-01T15:43:49;4.23;;;2.13;;
33553;SDS011;19885;42.208;24.952;2023-04-01T15:46:29;3.30;;;1.70;;
33553;SDS011;19885;42.208;24.952;2023-04-01T15:49:03;4.13;;;2.50;;
33553;SDS011;19885;42.208;24.952;2023-04-01T15:54:26;4.10;;;2.43;;
33553;SDS011;19885;42.208;24.952;2023-04-01T15:59:44;7.83;;;2.87;;
33553;SDS011;19885;42.208;24.952;2023-04-01T16:02:23;4.13;;;1.80;;
33553;SDS011;19885;42.208;24.952;2023-04-01T16:10:16;3.77;;;2.63;;
33553;SDS011;19885;42.208;24.952;2023-04-01T16:15:28;5.07;;;2.63;;
33553;SDS011;19885;42.208;24.952;2023-04-01T16:20:40;2.13;;;2.00;;
33553;SDS011;19885;42.208;24.952;2023-04-01T16:26:19;2.27;;;1.63;;
33553;SDS011;19885;42.208;24.952;2023-04-01T16:29:19;2.60;;;2.23;;
33553;SDS011;19885;42.208;24.952;2023-04-01T16:34:47;5.33;;;2.20;;
33553;SDS011;19885;42.208;24.952;2023-04-01T16:37:20;4.87;;;2.77;;
33553;SDS011;19885;42.208;24.952;2023-04-01T16:42:52;4.93;;;2.63;;
33553;SDS011;19885;42.208;24.952;2023-04-01T16:45:35;2.00;;;1.70;;
33553;SDS011;19885;42.208;24.952;2023-04-01T16:48:06;3.53;;;2.47;;
33553;SDS011;19885;42.208;24.952;2023-04-01T16:50:48;4.90;;;2.03;;
33553;SDS011;19885;42.208;24.952;2023-04-01T16:56:10;4.37;;;2.20;;
33553;SDS011;19885;42.208;24.952;2023-04-01T16:58:58;3.27;;;2.00;;
33553;SDS011;19885;42.208;24.952;2023-04-01T17:15:46;8.37;;;2.30;;
33553;SDS011;19885;42.208;24.952;2023-04-01T17:21:07;2.97;;;1.50;;
33553;SDS011;19885;42.208;24.952;2023-04-01T17:23:50;4.73;;;2.20;;
33553;SDS011;19885;42.208;24.952;2023-04-01T17:28:57;4.60;;;2.10;;
33553;SDS011;19885;42.208;24.952;2023-04-01T17:36:56;9.67;;;4.43;;
33553;SDS011;19885;42.208;24.952;2023-04-01T17:39:30;6.17;;;3.63;;
33553;SDS011;19885;42.208;24.952;2023-04-01T17:45:00;5.43;;;2.87;;
33553;SDS011;19885;42.208;24.952;2023-04-01T17:48:01;10.50;;;6.00;;
33553;SDS011;19885;42.208;24.952;2023-04-01T17:54:05;23.90;;;9.37;;
33553;SDS011;19885;42.208;24.952;2023-04-01T17:59:35;6.23;;;2.30;;
33553;SDS011;19885;42.208;24.952;2023-04-01T18:05:02;4.43;;;2.50;;
33553;SDS011;19885;42.208;24.952;2023-04-01T18:07:44;3.33;;;1.60;;
33553;SDS011;19885;42.208;24.952;2023-04-01T18:22:53;1.33;;;0.87;;
33553;SDS011;19885;42.208;24.952;2023-04-01T18:24:59;1.77;;;0.73;;
33553;SDS011;19885;42.208;24.952;2023-04-01T18:27:32;1.40;;;0.77;;
33553;SDS011;19885;42.208;24.952;2023-04-01T18:32:36;0.60;;;0.60;;
33553;SDS011;19885;42.208;24.952;2023-04-01T18:38:30;2.00;;;1.00;;
33553;SDS011;19885;42.208;24.952;2023-04-01T18:45:58;0.97;;;0.80;;
33553;SDS011;19885;42.208;24.952;2023-04-01T18:51:20;0.80;;;0.80;;
33553;SDS011;19885;42.208;24.952;2023-04-01T18:53:49;0.93;;;0.73;;
33553;SDS011;19885;42.208;24.952;2023-04-01T18:56:43;0.77;;;0.77;;
33553;SDS011;19885;42.208;24.952;2023-04-01T19:06:53;0.97;;;0.97;;
33553;SDS011;19885;42.208;24.952;2023-04-01T19:15:02;1.53;;;1.27;;
33553;SDS011;19885;42.208;24.952;2023-04-01T19:21:25;1.33;;;1.20;;
33553;SDS011;19885;42.208;24.952;2023-04-01T19:26:21;1.33;;;1.23;;
33553;SDS011;19885;42.208;24.952;2023-04-01T19:31:55;2.40;;;1.90;;
33553;SDS011;19885;42.208;24.952;2023-04-01T19:37:45;3.00;;;1.23;;
33553;SDS011;19885;42.208;24.952;2023-04-01T19:43:07;1.10;;;1.10;;
33553;SDS011;19885;42.208;24.952;2023-04-01T19:54:34;1.73;;;1.43;;
33553;SDS011;19885;42.208;24.952;2023-04-01T20:00:09;2.30;;;2.00;;
33553;SDS011;19885;42.208;24.952;2023-04-01T20:05:34;3.33;;;1.50;;
33553;SDS011;19885;42.208;24.952;2023-04-01T20:08:15;1.17;;;1.07;;
33553;SDS011;19885;42.208;24.952;2023-04-01T20:13:12;1.33;;;1.23;;
33553;SDS011;19885;42.208;24.952;2023-04-01T20:15:47;2.13;;;1.60;;
33553;SDS011;19885;42.208;24.952;2023-04-01T20:18:26;1.40;;;1.30;;
33553;SDS011;19885;42.208;24.952;2023-04-01T20:21:00;1.43;;;1.33;;
33553;SDS011;19885;42.208;24.952;2023-04-01T20:26:07;1.60;;;1.50;;
33553;SDS011;19885;42.208;24.952;2023-04-01T20:28:47;1.77;;;1.67;;
33553;SDS011;19885;42.208;24.952;2023-04-01T21:01:05;1.43;;;1.40;;
33553;SDS011;19885;42.208;24.952;2023-04-01T21:03:57;1.77;;;1.60;;
33553;SDS011;19885;42.208;24.952;2023-04-01T21:24:23;1.40;;;1.30;;
33553;SDS011;19885;42.208;24.952;2023-04-01T21:57:58;1.80;;;1.70;;
33553;SDS011;19885;42.208;24.952;2023-04-01T22:00:32;1.83;;;1.73;;
33553;SDS011;19885;42.208;24.952;2023-04-01T22:09:34;1.63;;;1.53;;
33553;SDS011;19885;42.208;24.952;2023-04-01T22:11:29;2.30;;;2.10;;
33553;SDS011;19885;42.208;24.952;2023-04-01T22:14:35;5.93;;;2.30;;
33553;SDS011;19885;42.208;24.952;2023-04-01T22:17:11;4.63;;;2.57;;
33553;SDS011;19885;42.208;24.952;2023-04-01T22:23:01;1.67;;;1.57;;
33553;SDS011;19885;42.208;24.952;2023-04-01T22:28:44;1.83;;;1.57;;
33553;SDS011;19885;42.208;24.952;2023-04-01T22:31:18;1.63;;;1.53;;
33553;SDS011;19885;42.208;24.952;2023-04-01T22:53:34;2.00;;;1.90;;
33553;SDS011;19885;42.208;24.952;2023-04-01T22:56:15;1.90;;;1.80;;
33553;SDS011;19885;42.208;24.952;2023-04-01T22:58:56;2.57;;;2.33;;
33553;SDS011;19885;42.208;24.952;2023-04-01T23:01:30;4.87;;;1.87;;
33553;SDS011;19885;42.208;24.952;2023-04-01T23:04:03;2.43;;;2.00;;
33553;SDS011;19885;42.208;24.952;2023-04-01T23:06:34;1.67;;;1.57;;
33553;SDS011;19885;42.208;24.952;2023-04-01T23:09:13;1.90;;;1.80;;
33553;SDS011;19885;42.208;24.952;2023-04-01T23:19:33;1.70;;;1.60;;
33553;SDS011;19885;42.208;24.952;2023-04-01T23:22:13;1.87;;;1.73;;
33553;SDS011;19885;42.208;24.952;2023-04-01T23:27:21;1.80;;;1.63;;
33553;SDS011;19885;42.208;24.952;2023-04-01T23:29:53;2.50;;;1.60;;
33553;SDS011;19885;42.208;24.952;2023-04-01T23:32:19;1.83;;;1.63;;
33553;SDS011;19885;42.208;24.952;2023-04-01T23:34:51;1.43;;;1.33;;
33553;SDS011;19885;42.208;24.952;2023-04-01T23:37:19;1.43;;;1.33;;
33553;SDS011;19885;42.208;24.952;2023-04-01T23:39:46;2.13;;;1.87;;
33553;SDS011;19885;42.208;24.952;2023-04-01T23:42:18;1.57;;;1.47;;
33553;SDS011;19885;42.208;24.952;2023-04-01T23:44:51;1.30;;;1.20;;
33553;SDS011;19885;42.208;24.952;2023-04-01T23:47:21;2.13;;;1.50;;
33553;SDS011;19885;42.208;24.952;2023-04-01T23:50:11;1.23;;;1.20;;
33553;SDS011;19885;42.208;24.952;2023-04-01T23:55:30;2.97;;;2.20;;
